createdAt,value
2023-04-02T00:00:35.171Z,96430.63
2023-04-02T00:03:05.540Z,96427.75
2023-04-02T00:05:45.536Z,96430.88
2023-04-02T00:08:22.131Z,96436.75
2023-04-02T00:10:58.400Z,96439.19
2023-04-02T00:13:41.005Z,96441.69
2023-04-02T00:16:09.006Z,96442.75
2023-04-02T00:18:37.074Z,96445.63
2023-04-02T00:21:36.642Z,96441.41
2023-04-02T00:24:13.851Z,96431.88
2023-04-02T00:26:46.303Z,96433.66
2023-04-02T00:29:14.082Z,96424.59
2023-04-02T00:31:48.187Z,96427.28
2023-04-02T00:34:36.096Z,96429.81
2023-04-02T00:37:02.863Z,96434.63
2023-04-02T00:39:30.857Z,96432.97
2023-04-02T00:41:58.285Z,96434.63
2023-04-02T00:44:24.875Z,96431.94
2023-04-02T00:46:51.473Z,96435.38
2023-04-02T00:49:32.137Z,96431.06
2023-04-02T00:52:00.738Z,96436.84
2023-04-02T00:54:29.569Z,96439.25
2023-04-02T00:56:56.415Z,96436.31
2023-04-02T00:59:33.826Z,96437.94
2023-04-02T01:02:16.765Z,96431.50
2023-04-02T01:04:43.497Z,96437.06
2023-04-02T01:07:10.463Z,96436.41
2023-04-02T01:10:00.829Z,96434.63
2023-04-02T01:12:51.761Z,96443.34
2023-04-02T01:15:24.666Z,96444.13
2023-04-02T01:18:13.642Z,96452.31
2023-04-02T01:20:59.993Z,96455.63
2023-04-02T01:23:53.760Z,96449.88
2023-04-02T01:26:43.278Z,96443.34
2023-04-02T01:29:31.462Z,96449.47
2023-04-02T01:32:02.306Z,96448.97
2023-04-02T01:34:29.064Z,96438.16
2023-04-02T01:37:27.539Z,96443.84
2023-04-02T01:39:59.811Z,96438.09
2023-04-02T01:42:32.437Z,96437.50
2023-04-02T01:45:13.462Z,96449.13
2023-04-02T01:47:40.102Z,96450.66
2023-04-02T01:50:27.003Z,96447.03
2023-04-02T01:52:56.599Z,96447.84
2023-04-02T01:55:42.885Z,96442.69
2023-04-02T01:58:10.448Z,96446.22
2023-04-02T02:00:37.479Z,96438.66
2023-04-02T02:03:04.321Z,96448.78
2023-04-02T02:05:30.963Z,96452.44
2023-04-02T02:07:57.782Z,96450.47
2023-04-02T02:10:27.540Z,96454.16
2023-04-02T02:12:54.464Z,96461.38
2023-04-02T02:15:22.535Z,96465.47
2023-04-02T02:17:49.220Z,96459.84
2023-04-02T02:20:16.000Z,96461.16
2023-04-02T02:22:49.473Z,96471.81
2023-04-02T02:25:26.986Z,96471.72
2023-04-02T02:28:03.574Z,96475.22
2023-04-02T02:30:44.793Z,96480.34
2023-04-02T02:33:18.974Z,96488.25
2023-04-02T02:35:59.731Z,96488.66
2023-04-02T02:38:42.528Z,96481.59
2023-04-02T02:41:24.300Z,96480.22
2023-04-02T02:44:09.160Z,96485.84
2023-04-02T02:46:37.802Z,96479.03
2023-04-02T02:49:04.473Z,96476.16
2023-04-02T02:51:40.468Z,96477.84
2023-04-02T02:54:07.093Z,96484.94
2023-04-02T02:56:34.665Z,96480.84
2023-04-02T02:59:01.331Z,96478.09
2023-04-02T03:01:29.376Z,96487.00
2023-04-02T03:03:56.089Z,96480.66
2023-04-02T03:06:22.799Z,96486.56
2023-04-02T03:08:57.833Z,96481.63
2023-04-02T03:11:38.769Z,96486.38
2023-04-02T03:14:23.199Z,96490.63
2023-04-02T03:16:51.529Z,96481.22
2023-04-02T03:19:32.796Z,96493.84
2023-04-02T03:22:06.724Z,96497.16
2023-04-02T03:24:41.636Z,96490.13
2023-04-02T03:27:28.250Z,96490.06
2023-04-02T03:30:00.576Z,96492.16
2023-04-02T03:32:32.629Z,96486.44
2023-04-02T03:35:10.167Z,96497.16
2023-04-02T03:37:41.000Z,96492.97
2023-04-02T03:40:10.965Z,96500.44
2023-04-02T03:42:41.439Z,96499.66
2023-04-02T03:45:26.949Z,96500.25
2023-04-02T03:48:00.652Z,96497.56
2023-04-02T03:50:35.959Z,96513.25
2023-04-02T03:53:03.159Z,96501.84
2023-04-02T03:55:31.596Z,96502.81
2023-04-02T03:58:16.404Z,96506.31
2023-04-02T04:01:15.324Z,96505.66
2023-04-02T04:03:43.503Z,96504.78
2023-04-02T04:06:26.549Z,96505.66
2023-04-02T04:09:12.779Z,96514.44
2023-04-02T04:11:43.976Z,96509.53
2023-04-02T04:14:33.271Z,96506.81
2023-04-02T04:17:08.487Z,96506.81
2023-04-02T04:19:58.176Z,96511.16
2023-04-02T04:22:28.400Z,96510.13
2023-04-02T04:24:55.063Z,96514.66
2023-04-02T04:27:44.085Z,96511.72
2023-04-02T04:30:32.448Z,96515.25
2023-04-02T04:33:02.693Z,96515.59
2023-04-02T04:35:38.982Z,96520.03
2023-04-02T04:38:07.998Z,96519.91
2023-04-02T04:40:36.394Z,96515.56
2023-04-02T04:43:14.914Z,96516.84
2023-04-02T04:45:54.322Z,96517.19
2023-04-02T04:48:37.706Z,96524.97
2023-04-02T04:51:07.326Z,96530.25
2023-04-02T04:53:33.929Z,96528.59
2023-04-02T04:56:12.566Z,96532.91
2023-04-02T04:58:54.397Z,96538.41
2023-04-02T05:01:27.992Z,96540.44
2023-04-02T05:03:59.582Z,96537.91
2023-04-02T05:06:36.072Z,96543.28
2023-04-02T05:09:24.733Z,96539.41
2023-04-02T05:12:02.316Z,96533.06
2023-04-02T05:14:42.964Z,96538.34
2023-04-02T05:17:11.976Z,96542.84
2023-04-02T05:19:44.398Z,96543.28
2023-04-02T05:22:25.704Z,96539.59
2023-04-02T05:24:56.826Z,96539.91
2023-04-02T05:27:39.945Z,96544.91
2023-04-02T05:30:14.377Z,96545.91
2023-04-02T05:32:50.410Z,96549.38
2023-04-02T05:35:18.183Z,96555.16
2023-04-02T05:37:44.919Z,96550.16
2023-04-02T05:40:20.089Z,96560.69
2023-04-02T05:42:48.759Z,96562.31
2023-04-02T05:45:35.280Z,96557.56
2023-04-02T05:48:04.378Z,96564.81
2023-04-02T05:50:35.926Z,96557.78
2023-04-02T05:53:21.052Z,96560.25
2023-04-02T05:56:11.703Z,96566.81
2023-04-02T05:58:46.409Z,96566.72
2023-04-02T06:01:31.808Z,96566.66
2023-04-02T06:04:22.456Z,96565.47
2023-04-02T06:06:59.703Z,96575.31
2023-04-02T06:09:58.627Z,96574.44
2023-04-02T06:12:28.194Z,96568.78
2023-04-02T06:14:54.792Z,96577.19
2023-04-02T06:17:21.703Z,96570.50
2023-04-02T06:19:48.512Z,96572.06
2023-04-02T06:22:37.953Z,96563.50
2023-04-02T06:25:15.884Z,96572.88
2023-04-02T06:27:42.572Z,96579.22
2023-04-02T06:30:14.302Z,96582.81
2023-04-02T06:32:40.982Z,96585.88
2023-04-02T06:35:12.546Z,96593.69
2023-04-02T06:37:40.095Z,96583.25
2023-04-02T06:40:14.338Z,96591.59
2023-04-02T06:42:41.021Z,96594.44
2023-04-02T06:45:14.311Z,96591.59
2023-04-02T06:47:44.537Z,96591.22
2023-04-02T06:50:25.582Z,96596.25
2023-04-02T06:53:05.126Z,96604.47
2023-04-02T06:55:33.024Z,96608.94
2023-04-02T06:57:59.816Z,96608.38
2023-04-02T07:00:34.375Z,96611.88
2023-04-02T07:03:01.221Z,96613.09
2023-04-02T07:05:27.925Z,96613.16
2023-04-02T07:07:54.588Z,96612.88
2023-04-02T07:10:21.214Z,96614.72
2023-04-02T07:12:47.829Z,96614.13
2023-04-02T07:15:17.858Z,96617.50
2023-04-02T07:17:45.107Z,96619.25
2023-04-02T07:20:26.099Z,96623.69
2023-04-02T07:22:53.018Z,96628.97
2023-04-02T07:25:19.619Z,96629.41
2023-04-02T07:27:46.211Z,96635.63
2023-04-02T07:30:13.029Z,96634.78
2023-04-02T07:32:39.624Z,96639.13
2023-04-02T07:35:07.172Z,96644.44
2023-04-02T07:37:33.772Z,96643.75
2023-04-02T07:40:00.421Z,96647.03
2023-04-02T07:42:27.087Z,96647.63
2023-04-02T07:44:53.753Z,96648.50
2023-04-02T07:47:20.353Z,96656.78
2023-04-02T07:49:46.950Z,96655.81
2023-04-02T07:52:13.551Z,96649.75
2023-04-02T07:54:40.201Z,96649.66
2023-04-02T07:57:06.876Z,96655.75
2023-04-02T07:59:33.559Z,96655.97
2023-04-02T08:02:00.230Z,96660.97
2023-04-02T08:04:27.016Z,96657.81
2023-04-02T08:06:53.643Z,96665.41
2023-04-02T08:09:20.280Z,96664.13
2023-04-02T08:11:46.954Z,96665.91
2023-04-02T08:14:13.731Z,96668.47
2023-04-02T08:16:50.384Z,96668.72
2023-04-02T08:19:17.144Z,96663.91
2023-04-02T08:21:43.787Z,96666.38
2023-04-02T08:24:10.456Z,96675.13
2023-04-02T08:26:37.161Z,96678.03
2023-04-02T08:29:04.094Z,96677.28
2023-04-02T08:31:30.720Z,96673.69
2023-04-02T08:33:57.319Z,96678.50
2023-04-02T08:36:33.178Z,96671.72
2023-04-02T08:38:59.879Z,96679.59
2023-04-02T08:41:26.892Z,96679.81
2023-04-02T08:44:31.814Z,96676.97
2023-04-02T08:47:02.085Z,96679.78
2023-04-02T08:49:49.045Z,96686.78
2023-04-02T08:52:26.178Z,96685.84
2023-04-02T08:54:52.835Z,96699.78
2023-04-02T08:57:25.399Z,96689.41
2023-04-02T08:59:58.149Z,96687.25
2023-04-02T09:02:32.261Z,96700.06
2023-04-02T09:04:59.073Z,96704.25
2023-04-02T09:07:25.731Z,96697.91
2023-04-02T09:09:52.400Z,96698.59
2023-04-02T09:12:20.678Z,96705.25
2023-04-02T09:14:49.911Z,96707.00
2023-04-02T09:17:21.531Z,96701.38
2023-04-02T09:20:13.483Z,96702.78
2023-04-02T09:22:40.102Z,96713.78
2023-04-02T09:25:14.435Z,96715.28
2023-04-02T09:27:41.047Z,96713.75
2023-04-02T09:30:23.770Z,96712.34
2023-04-02T09:32:51.815Z,96715.03
2023-04-02T09:35:27.020Z,96720.38
2023-04-02T09:38:26.856Z,96727.84
2023-04-02T09:41:06.164Z,96725.81
2023-04-02T09:43:36.832Z,96730.91
2023-04-02T09:46:14.116Z,96730.75
2023-04-02T09:48:43.537Z,96735.25
2023-04-02T09:51:17.137Z,96735.28
2023-04-02T09:53:48.320Z,96740.97
2023-04-02T09:56:33.467Z,96740.53
2023-04-02T09:59:15.236Z,96740.88
2023-04-02T10:01:46.151Z,96751.97
2023-04-02T10:04:44.476Z,96744.81
2023-04-02T10:07:33.917Z,96755.91
2023-04-02T10:10:19.258Z,96757.06
2023-04-02T10:12:47.656Z,96756.00
2023-04-02T10:15:17.066Z,96757.69
2023-04-02T10:17:43.733Z,96758.50
2023-04-02T10:20:18.781Z,96764.72
2023-04-02T10:22:45.768Z,96752.13
2023-04-02T10:25:14.737Z,96761.34
2023-04-02T10:27:49.447Z,96764.06
2023-04-02T10:30:20.756Z,96765.38
2023-04-02T10:33:00.292Z,96756.69
2023-04-02T10:35:57.375Z,96772.78
2023-04-02T10:38:31.208Z,96770.34
2023-04-02T10:41:03.571Z,96775.13
2023-04-02T10:43:51.525Z,96775.59
2023-04-02T10:46:28.275Z,96775.59
2023-04-02T10:49:16.363Z,96779.47
2023-04-02T10:51:58.698Z,96788.63
2023-04-02T10:54:37.371Z,96785.91
2023-04-02T10:57:10.080Z,96786.72
2023-04-02T10:59:38.670Z,96789.75
2023-04-02T11:02:22.996Z,96790.63
2023-04-02T11:04:49.688Z,96792.06
2023-04-02T11:07:21.371Z,96792.63
2023-04-02T11:09:52.711Z,96784.16
2023-04-02T11:12:43.313Z,96780.16
2023-04-02T11:15:16.488Z,96788.47
2023-04-02T11:17:44.452Z,96788.47
2023-04-02T11:20:48.272Z,96795.06
2023-04-02T11:23:19.396Z,96795.78
2023-04-02T11:25:46.017Z,96793.34
2023-04-02T11:28:26.748Z,96797.91
2023-04-02T11:30:54.526Z,96800.69
2023-04-02T11:33:37.657Z,96802.06
2023-04-02T11:36:43.913Z,96804.16
2023-04-02T11:39:17.069Z,96806.09
2023-04-02T11:42:04.070Z,96807.06
2023-04-02T11:44:30.684Z,96810.28
2023-04-02T11:47:15.959Z,96820.22
2023-04-02T11:49:54.859Z,96815.59
2023-04-02T11:52:32.836Z,96820.38
2023-04-02T11:55:38.136Z,96819.16
2023-04-02T11:58:35.496Z,96826.94
2023-04-02T12:01:24.410Z,96823.84
2023-04-02T12:04:09.416Z,96834.66
2023-04-02T12:06:47.693Z,96828.47
2023-04-02T12:09:31.398Z,96841.50
2023-04-02T12:11:59.451Z,96841.66
2023-04-02T12:14:37.905Z,96830.56
2023-04-02T12:17:07.701Z,96842.34
2023-04-02T12:19:36.134Z,96844.09
2023-04-02T12:22:02.788Z,96836.50
2023-04-02T12:24:29.416Z,96845.09
2023-04-02T12:27:09.713Z,96840.53
2023-04-02T12:29:39.036Z,96835.75
2023-04-02T12:32:05.678Z,96841.00
2023-04-02T12:34:32.418Z,96842.06
2023-04-02T12:37:01.065Z,96847.09
2023-04-02T12:39:28.569Z,96849.41
2023-04-02T12:41:55.656Z,96856.94
2023-04-02T12:44:24.530Z,96848.56
2023-04-02T12:46:51.264Z,96855.88
2023-04-02T12:49:39.606Z,96846.94
2023-04-02T12:52:13.404Z,96840.88
2023-04-02T12:54:57.192Z,96846.19
2023-04-02T12:57:27.636Z,96846.63
2023-04-02T12:59:55.351Z,96843.94
2023-04-02T13:02:23.507Z,96844.53
2023-04-02T13:04:55.073Z,96847.69
2023-04-02T13:07:23.838Z,96850.84
2023-04-02T13:09:54.316Z,96847.91
2023-04-02T13:12:30.170Z,96844.88
2023-04-02T13:14:57.258Z,96852.41
2023-04-02T13:17:41.635Z,96847.22
2023-04-02T13:20:27.601Z,96853.53
2023-04-02T13:22:54.218Z,96851.56
2023-04-02T13:25:23.586Z,96854.84
2023-04-02T13:27:50.262Z,96848.72
2023-04-02T13:30:20.800Z,96842.44
2023-04-02T13:32:47.552Z,96850.72
2023-04-02T13:35:14.269Z,96845.97
2023-04-02T13:37:40.975Z,96844.78
2023-04-02T13:40:09.381Z,96847.66
2023-04-02T13:42:36.040Z,96850.25
2023-04-02T13:45:02.747Z,96850.25
2023-04-02T13:47:29.437Z,96847.44
2023-04-02T13:49:56.034Z,96851.63
2023-04-02T13:52:22.741Z,96847.50
2023-04-02T13:54:50.689Z,96845.22
2023-04-02T13:57:17.806Z,96844.69
2023-04-02T13:59:44.451Z,96848.94
2023-04-02T14:02:16.291Z,96842.22
2023-04-02T14:04:44.937Z,96845.50
2023-04-02T14:07:18.362Z,96844.91
2023-04-02T14:10:00.234Z,96847.97
2023-04-02T14:12:29.419Z,96847.66
2023-04-02T14:15:02.979Z,96839.38
2023-04-02T14:17:42.719Z,96850.50
2023-04-02T14:20:26.732Z,96857.78
2023-04-02T14:23:05.416Z,96858.34
2023-04-02T14:26:18.000Z,96863.16
2023-04-02T14:28:50.687Z,96856.47
2023-04-02T14:31:26.020Z,96861.63
2023-04-02T14:34:21.234Z,96867.03
2023-04-02T14:36:56.213Z,96863.75
2023-04-02T14:39:36.505Z,96864.69
2023-04-02T14:42:18.440Z,96857.06
2023-04-02T14:44:50.769Z,96859.53
2023-04-02T14:47:47.779Z,96868.31
2023-04-02T14:50:19.969Z,96869.25
2023-04-02T14:52:48.000Z,96867.16
2023-04-02T14:55:25.149Z,96866.44
2023-04-02T14:57:52.116Z,96875.44
2023-04-02T15:00:39.960Z,96877.22
2023-04-02T15:03:06.727Z,96880.28
2023-04-02T15:05:42.883Z,96870.75
2023-04-02T15:08:19.489Z,96878.84
2023-04-02T15:11:06.624Z,96873.03
2023-04-02T15:13:56.211Z,96880.25
2023-04-02T15:16:23.951Z,96880.47
2023-04-02T15:18:53.233Z,96876.28
2023-04-02T15:21:19.761Z,96877.44
2023-04-02T15:23:51.364Z,96876.41
2023-04-02T15:26:29.733Z,96882.25
2023-04-02T15:29:28.982Z,96883.91
2023-04-02T15:32:34.647Z,96890.94
2023-04-02T15:35:20.315Z,96883.09
2023-04-02T15:38:08.930Z,96886.22
2023-04-02T15:40:57.269Z,96880.34
2023-04-02T15:43:31.649Z,96882.09
2023-04-02T15:46:21.788Z,96880.56
2023-04-02T15:48:57.422Z,96882.16
2023-04-02T15:51:34.020Z,96882.41
2023-04-02T15:54:37.524Z,96879.06
2023-04-02T15:57:45.758Z,96893.09
2023-04-02T16:00:23.834Z,96887.53
2023-04-02T16:03:21.301Z,96888.97
2023-04-02T16:06:09.995Z,96884.09
2023-04-02T16:08:58.274Z,96893.09
2023-04-02T16:11:25.251Z,96897.25
2023-04-02T16:13:52.512Z,96896.19
2023-04-02T16:16:26.076Z,96896.81
2023-04-02T16:18:59.110Z,96897.53
2023-04-02T16:21:31.577Z,96898.97
2023-04-02T16:23:58.238Z,96904.38
2023-04-02T16:26:33.747Z,96907.19
2023-04-02T16:29:47.429Z,96898.03
2023-04-02T16:32:37.677Z,96907.50
2023-04-02T16:35:42.764Z,96915.31
2023-04-02T16:38:37.896Z,96913.88
2023-04-02T16:41:22.812Z,96924.19
2023-04-02T16:43:55.445Z,96930.41
2023-04-02T16:46:39.322Z,96925.47
2023-04-02T16:49:34.407Z,96933.53
2023-04-02T16:52:22.548Z,96938.28
2023-04-02T16:54:57.966Z,96941.72
2023-04-02T16:57:33.116Z,96936.19
2023-04-02T17:00:20.955Z,96942.81
2023-04-02T17:02:53.516Z,96948.59
2023-04-02T17:05:32.882Z,96952.13
2023-04-02T17:08:22.259Z,96948.84
2023-04-02T17:10:55.718Z,96958.84
2023-04-02T17:13:42.044Z,96952.63
2023-04-02T17:16:26.241Z,96958.56
2023-04-02T17:18:53.560Z,96963.09
2023-04-02T17:21:23.808Z,96964.81
2023-04-02T17:23:58.117Z,96963.47
2023-04-02T17:26:27.021Z,96967.34
2023-04-02T17:28:53.834Z,96971.91
2023-04-02T17:31:23.800Z,96969.59
2023-04-02T17:33:52.915Z,96970.56
2023-04-02T17:36:28.138Z,96975.94
2023-04-02T17:39:00.563Z,96975.03
2023-04-02T17:41:32.960Z,96970.56
2023-04-02T17:44:02.349Z,96978.13
2023-04-02T17:46:38.065Z,96976.09
2023-04-02T17:49:20.631Z,96979.63
2023-04-02T17:52:10.453Z,96982.47
2023-04-02T17:55:10.665Z,96986.38
2023-04-02T17:57:40.440Z,96986.81
2023-04-02T18:00:33.129Z,96996.34
2023-04-02T18:02:59.848Z,96993.16
2023-04-02T18:05:46.060Z,97000.41
2023-04-02T18:08:54.106Z,96996.84
2023-04-02T18:11:41.935Z,97002.63
2023-04-02T18:14:35.974Z,96998.31
2023-04-02T18:17:21.300Z,97000.41
2023-04-02T18:19:56.130Z,97002.22
2023-04-02T18:22:27.812Z,97002.59
2023-04-02T18:25:00.667Z,97011.06
2023-04-02T18:27:30.632Z,97008.03
2023-04-02T18:30:26.136Z,97012.38
2023-04-02T18:33:23.274Z,97014.59
2023-04-02T18:35:59.000Z,97016.03
2023-04-02T18:38:37.204Z,97026.34
2023-04-02T18:41:28.614Z,97029.00
2023-04-02T18:44:40.483Z,97027.41
2023-04-02T18:47:42.220Z,97034.28
2023-04-02T18:50:15.937Z,97040.09
2023-04-02T18:52:42.586Z,97042.78
2023-04-02T18:55:20.691Z,97042.78
2023-04-02T18:57:49.722Z,97040.16
2023-04-02T19:00:29.707Z,97042.84
2023-04-02T19:03:17.819Z,97047.09
2023-04-02T19:05:49.169Z,97046.72
2023-04-02T19:08:25.929Z,97055.19
2023-04-02T19:10:54.280Z,97061.38
2023-04-02T19:13:20.966Z,97057.25
2023-04-02T19:15:56.333Z,97060.13
2023-04-02T19:18:29.771Z,97065.25
2023-04-02T19:20:57.733Z,97068.53
2023-04-02T19:23:40.026Z,97068.53
2023-04-02T19:26:14.080Z,97071.44
2023-04-02T19:28:45.198Z,97076.50
2023-04-02T19:31:24.903Z,97077.09
2023-04-02T19:34:14.883Z,97078.34
2023-04-02T19:36:50.866Z,97075.69
2023-04-02T19:39:28.496Z,97082.38
2023-04-02T19:42:21.521Z,97084.47
2023-04-02T19:44:49.704Z,97089.06
2023-04-02T19:47:19.171Z,97095.25
2023-04-02T19:49:45.769Z,97094.88
2023-04-02T19:52:12.388Z,97094.88
2023-04-02T19:54:39.133Z,97102.72
2023-04-02T19:57:05.804Z,97101.50
2023-04-02T19:59:32.610Z,97108.28
2023-04-02T20:01:59.267Z,97103.50
2023-04-02T20:04:26.126Z,97110.53
2023-04-02T20:06:52.799Z,97104.53
2023-04-02T20:09:19.401Z,97114.03
2023-04-02T20:11:46.100Z,97117.59
2023-04-02T20:14:12.758Z,97115.91
2023-04-02T20:16:39.535Z,97117.50
2023-04-02T20:19:06.203Z,97117.31
2023-04-02T20:21:32.826Z,97116.66
2023-04-02T20:23:59.480Z,97113.38
2023-04-02T20:26:26.117Z,97114.19
2023-04-02T20:28:52.770Z,97113.34
2023-04-02T20:31:22.463Z,97117.03
2023-04-02T20:33:49.326Z,97115.41
2023-04-02T20:36:16.571Z,97123.69
2023-04-02T20:38:43.325Z,97121.44
2023-04-02T20:41:10.149Z,97116.25
2023-04-02T20:43:36.892Z,97122.81
2023-04-02T20:46:04.578Z,97125.09
2023-04-02T20:48:31.375Z,97120.38
2023-04-02T20:50:58.746Z,97122.41
2023-04-02T20:53:25.580Z,97131.44
2023-04-02T20:55:52.212Z,97130.00
2023-04-02T20:58:18.898Z,97132.28
2023-04-02T21:00:45.559Z,97132.47
2023-04-02T21:03:12.195Z,97138.88
2023-04-02T21:05:45.389Z,97133.91
2023-04-02T21:08:12.138Z,97131.00
2023-04-02T21:10:39.000Z,97136.53
2023-04-02T21:13:05.838Z,97135.13
2023-04-02T21:15:32.633Z,97134.31
2023-04-02T21:18:02.062Z,97129.56
2023-04-02T21:20:28.779Z,97127.69
2023-04-02T21:22:55.518Z,97135.31
2023-04-02T21:25:22.270Z,97142.59
2023-04-02T21:27:50.195Z,97139.53
2023-04-02T21:30:17.045Z,97140.38
2023-04-02T21:32:43.723Z,97137.69
2023-04-02T21:35:10.412Z,97142.44
2023-04-02T21:37:37.077Z,97134.63
2023-04-02T21:40:04.092Z,97137.53
2023-04-02T21:42:30.791Z,97135.03
2023-04-02T21:44:57.510Z,97143.28
2023-04-02T21:47:24.317Z,97137.72
2023-04-02T21:49:50.964Z,97136.09
2023-04-02T21:52:17.592Z,97134.44
2023-04-02T21:54:44.237Z,97137.13
2023-04-02T21:57:10.915Z,97142.91
2023-04-02T21:59:37.642Z,97135.69
2023-04-02T22:02:04.284Z,97143.50
2023-04-02T22:04:30.995Z,97142.91
2023-04-02T22:06:57.619Z,97137.38
2023-04-02T22:09:24.809Z,97136.13
2023-04-02T22:11:52.969Z,97140.88
2023-04-02T22:14:19.717Z,97136.38
2023-04-02T22:16:46.397Z,97137.81
2023-04-02T22:19:14.107Z,97137.59
2023-04-02T22:21:40.788Z,97137.41
2023-04-02T22:24:08.757Z,97135.56
2023-04-02T22:26:35.557Z,97131.63
2023-04-02T22:29:02.316Z,97128.56
2023-04-02T22:31:30.030Z,97126.06
2023-04-02T22:33:57.083Z,97119.50
2023-04-02T22:36:23.892Z,97116.41
2023-04-02T22:38:50.623Z,97123.00
2023-04-02T22:41:18.158Z,97119.69
2023-04-02T22:43:45.036Z,97116.84
2023-04-02T22:46:13.474Z,97113.31
2023-04-02T22:48:40.273Z,97121.41
2023-04-02T22:51:07.642Z,97123.44
2023-04-02T22:53:34.936Z,97124.09
2023-04-02T22:56:20.997Z,97122.22
2023-04-02T22:58:47.682Z,97122.41
2023-04-02T23:01:20.434Z,97122.41
2023-04-02T23:03:47.205Z,97117.66
2023-04-02T23:06:15.957Z,97119.69
2023-04-02T23:08:42.611Z,97117.66
2023-04-02T23:11:11.120Z,97118.88
2023-04-02T23:13:38.291Z,97114.53
2023-04-02T23:16:06.479Z,97118.88
2023-04-02T23:18:34.186Z,97119.28
2023-04-02T23:21:01.032Z,97112.25
2023-04-02T23:23:27.751Z,97117.19
2023-04-02T23:26:03.531Z,97115.09
2023-04-02T23:28:31.043Z,97110.19
2023-04-02T23:30:57.678Z,97108.72
2023-04-02T23:33:24.397Z,97106.47
2023-04-02T23:35:51.154Z,97109.56
2023-04-02T23:38:17.798Z,97108.53
2023-04-02T23:40:44.437Z,97111.41
2023-04-02T23:43:11.177Z,97107.28
2023-04-02T23:45:37.812Z,97106.88
2023-04-02T23:48:04.776Z,97106.47
2023-04-02T23:50:31.519Z,97101.28
2023-04-02T23:52:58.129Z,97104.78
2023-04-02T23:55:24.789Z,97103.09
2023-04-02T23:57:51.489Z,97098.31
